Time;durP1;ratioP1;P1;durP2;ratioP2;P2;SDS_P1;SDS_P2;PMS_P1;PMS_P2;Temp;Humidity;BMP_temperature;BMP_pressure;BME280_temperature;BME280_humidity;BME280_pressure;Samples;Min_cycle;Max_cycle;Signal;HPM_P1;HPM_P2
2023/02/20 00:01:53;;;;;;;2.40;1.20;;;;;;;-1.26;75.53;98429.95;105392;1254;74606;-26
2023/02/20 00:04:24;;;;;;;2.20;1.20;;;;;;;-1.16;75.30;98428.17;105307;1260;74244;-26
2023/02/20 00:06:54;;;;;;;6.40;2.00;;;;;;;-0.75;73.61;98430.28;105555;1254;61315;-26
2023/02/20 00:09:23;;;;;;;2.00;1.30;;;;;;;-0.76;72.99;98426.06;105597;1254;62160;-26
2023/02/20 00:11:58;;;;;;;2.40;1.20;;;;;;;-0.86;72.82;98432.29;105791;1258;74673;-26
2023/02/20 00:14:31;;;;;;;5.10;1.30;;;;;;;-1.03;73.50;98425.05;105688;1256;75817;-26
2023/02/20 00:17:00;;;;;;;2.90;1.10;;;;;;;-1.23;74.01;98423.36;105811;1254;74233;-26
2023/02/20 00:19:29;;;;;;;2.40;1.20;;;;;;;-1.37;74.61;98430.61;105737;1257;61193;-26
2023/02/20 00:21:59;;;;;;;1.00;0.80;;;;;;;-1.47;75.22;98427.44;105484;1257;61814;-26
2023/02/20 00:24:28;;;;;;;4.20;1.70;;;;;;;-1.12;73.93;98421.04;105785;1253;74759;-26
2023/02/20 00:26:56;;;;;;;4.20;1.30;;;;;;;-0.83;72.83;98413.09;105781;1256;75809;-26
2023/02/20 00:29:25;;;;;;;2.30;1.20;;;;;;;-0.79;71.62;98410.19;105657;1258;73967;-26
2023/02/20 00:31:56;;;;;;;2.70;1.50;;;;;;;-0.91;71.95;98419.75;105776;1256;61083;-26
2023/02/20 00:34:26;;;;;;;3.30;1.20;;;;;;;-1.21;72.68;98417.98;105371;1260;61838;-26
2023/02/20 00:36:59;;;;;;;3.30;1.30;;;;;;;-1.33;72.69;98422.61;105582;1256;74584;-26
2023/02/20 00:39:30;;;;;;;1.90;1.40;;;;;;;-1.46;73.44;98427.58;105739;1254;75825;-26
2023/02/20 00:41:59;;;;;;;2.70;1.50;;;;;;;-1.56;73.36;98417.79;105262;1261;74724;-26
2023/02/20 00:44:32;;;;;;;1.50;1.20;;;;;;;-1.29;72.34;98420.89;105497;1258;61358;-26
2023/02/20 00:47:01;;;;;;;3.30;0.90;;;;;;;-1.05;71.26;98436.23;105434;1256;61552;-26
2023/02/20 00:49:30;;;;;;;3.10;1.60;;;;;;;-1.14;71.26;98431.69;105637;1256;74599;-26
2023/02/20 00:52:09;;;;;;;1.30;0.90;;;;;;;-1.29;71.31;98429.94;105757;1254;75646;-26
2023/02/20 00:54:37;;;;;;;3.10;1.50;;;;;;;-1.49;70.95;98425.98;105670;1256;73370;-27
2023/02/20 00:57:07;;;;;;;3.20;1.70;;;;;;;-1.57;71.03;98436.21;105646;1253;61144;-26
2023/02/20 00:59:35;;;;;;;3.70;1.40;;;;;;;-1.69;71.38;98424.25;105682;1259;61180;-26
2023/02/20 01:02:20;;;;;;;2.30;1.20;;;;;;;-1.77;71.66;98438.73;105558;1253;74394;-26
2023/02/20 01:04:50;;;;;;;3.00;1.30;;;;;;;-1.57;71.47;98438.75;105464;1253;75939;-26
2023/02/20 01:07:18;;;;;;;2.60;1.40;;;;;;;-1.19;70.12;98439.37;105574;1258;74555;-26
2023/02/20 01:09:47;;;;;;;4.00;1.50;;;;;;;-1.08;69.72;98448.96;105609;1255;61059;-26
2023/02/20 01:12:15;;;;;;;1.40;1.00;;;;;;;-1.27;69.66;98440.41;105525;1259;61560;-26
2023/02/20 01:14:44;;;;;;;2.00;1.30;;;;;;;-1.39;70.11;98449.42;105465;1256;74541;-26
2023/02/20 01:17:13;;;;;;;4.80;1.60;;;;;;;-1.56;70.46;98434.95;105575;1253;76204;-26
2023/02/20 01:19:43;;;;;;;1.30;0.90;;;;;;;-1.64;70.46;98449.08;105764;1253;74289;-27
2023/02/20 01:22:11;;;;;;;4.60;1.70;;;;;;;-1.75;71.20;98446.79;105459;1260;61214;-26
2023/02/20 01:24:42;;;;;;;3.10;1.00;;;;;;;-1.83;71.27;98439.64;105765;1254;62142;-26
2023/02/20 01:27:10;;;;;;;3.80;1.60;;;;;;;-1.74;71.76;98451.69;105671;1253;74619;-26
2023/02/20 01:29:38;;;;;;;2.40;1.30;;;;;;;-1.30;70.88;98449.73;105645;1258;76367;-26
2023/02/20 01:32:12;;;;;;;2.80;1.40;;;;;;;-1.24;70.33;98451.86;105575;1256;74200;-27
2023/02/20 01:34:41;;;;;;;3.20;1.10;;;;;;;-1.45;70.33;98443.88;105619;1253;61143;-26
2023/02/20 01:37:12;;;;;;;4.60;1.40;;;;;;;-1.48;70.79;98441.42;105653;1255;62132;-26
2023/02/20 01:39:41;;;;;;;5.00;1.80;;;;;;;-1.68;71.21;98437.83;105657;1259;73260;-26
2023/02/20 01:42:12;;;;;;;3.40;1.50;;;;;;;-1.79;72.11;98439.98;105774;1264;75670;-26
2023/02/20 01:44:41;;;;;;;4.30;1.40;;;;;;;-1.88;72.58;98447.17;105650;1256;74296;-27
2023/02/20 01:47:21;;;;;;;6.10;1.70;;;;;;;-1.90;73.02;98434.46;105563;1253;61270;-26
2023/02/20 01:49:52;;;;;;;4.00;1.60;;;;;;;-1.41;71.47;98442.52;105500;1265;61136;-26
2023/02/20 01:52:23;;;;;;;2.00;1.20;;;;;;;-1.26;70.61;98437.62;105621;1257;75404;-26
2023/02/20 01:54:56;;;;;;;4.20;1.80;;;;;;;-1.28;70.00;98424.27;105705;1259;75762;-26
2023/02/20 01:57:25;;;;;;;5.70;1.60;;;;;;;-1.47;70.52;98436.64;105684;1254;74692;-26
2023/02/20 01:59:56;;;;;;;2.10;1.20;;;;;;;-1.68;70.94;98418.59;105667;1255;61163;-26
2023/02/20 02:02:26;;;;;;;5.60;1.90;;;;;;;-1.79;71.11;98436.21;105518;1259;61058;-26
2023/02/20 02:04:54;;;;;;;7.70;3.10;;;;;;;-1.96;72.08;98443.71;105731;1258;75158;-26
2023/02/20 02:07:23;;;;;;;3.50;2.00;;;;;;;-2.05;72.40;98441.20;105651;1259;75637;-26
2023/02/20 02:09:55;;;;;;;2.70;1.10;;;;;;;-1.94;71.73;98446.55;105675;1254;73191;-26
2023/02/20 02:12:23;;;;;;;3.00;1.40;;;;;;;-1.43;70.72;98454.19;105519;1259;61190;-26
2023/02/20 02:14:51;;;;;;;5.40;2.10;;;;;;;-1.32;69.96;98453.56;105498;1254;61841;-26
2023/02/20 02:17:43;;;;;;;;;;;;;;;-1.51;70.11;98452.62;105385;1253;74395;-26
2023/02/20 02:20:56;;;;;;;4.70;1.20;;;;;;;-1.66;70.19;98444.20;105528;1253;74701;-26
2023/02/20 02:24:03;;;;;;;2.90;1.80;;;;;;;-1.80;70.73;98456.36;105744;1253;73345;-26
2023/02/20 02:27:07;;;;;;;3.20;1.50;;;;;;;-2.06;70.98;98448.37;105760;1259;61075;-26
2023/02/20 02:29:57;;;;;;;2.50;1.60;;;;;;;-2.17;70.88;98452.20;105690;1259;61967;-26
2023/02/20 02:32:48;;;;;;;4.10;1.40;;;;;;;-2.19;71.37;98460.79;105532;1259;75008;-26
2023/02/20 02:35:26;;;;;;;4.20;1.20;;;;;;;-1.72;69.96;98459.80;105571;1260;75944;-26
2023/02/20 02:38:13;;;;;;;2.30;1.30;;;;;;;-1.59;68.13;98448.70;105428;1259;73800;-26
2023/02/20 02:40:50;;;;;;;1.90;1.40;;;;;;;-1.66;67.57;98452.23;105599;1259;61331;-26
2023/02/20 02:43:50;;;;;;;3.00;1.20;;;;;;;-1.78;67.08;98451.16;105643;1257;61823;-26
2023/02/20 02:46:30;;;;;;;2.40;1.40;;;;;;;-2.00;68.09;98453.05;105701;1258;75614;-26
2023/02/20 02:49:08;;;;;;;1.90;1.20;;;;;;;-2.13;68.42;98455.63;105661;1255;76200;-26
2023/02/20 02:51:38;;;;;;;7.90;1.80;;;;;;;-2.20;68.38;98455.20;105661;1259;74420;-26
2023/02/20 02:54:18;;;;;;;3.10;1.30;;;;;;;-2.31;69.07;98465.99;105658;1258;61040;-26
2023/02/20 02:56:47;;;;;;;2.90;1.30;;;;;;;-2.43;69.60;98470.36;105521;1259;61249;-26
2023/02/20 02:59:24;;;;;;;1.30;0.90;;;;;;;-2.51;70.13;98469.31;105670;1260;75162;-26
2023/02/20 03:01:57;;;;;;;2.90;0.80;;;;;;;-2.14;69.67;98469.24;105700;1259;73829;-26
2023/02/20 03:04:29;;;;;;;3.70;1.30;;;;;;;-1.65;67.65;98463.41;105679;1259;73897;-26
2023/02/20 03:07:06;;;;;;;1.80;0.90;;;;;;;-1.64;67.02;98463.04;105662;1260;61557;-26
2023/02/20 03:09:41;;;;;;;3.10;1.10;;;;;;;-1.80;67.23;98466.73;105668;1261;62145;-26
2023/02/20 03:12:09;;;;;;;1.20;0.90;;;;;;;-1.99;67.07;98459.48;105685;1259;75637;-26
2023/02/20 03:18:10;;;;;;;4.10;1.20;;;;;;;-2.29;67.60;98461.33;105726;1259;72995;-26
2023/02/20 03:20:52;;;;;;;5.20;1.20;;;;;;;-2.38;68.33;98467.12;105667;1261;61212;-26
2023/02/20 03:23:23;;;;;;;2.00;1.40;;;;;;;-2.52;68.54;98468.48;105705;1260;61055;-26
2023/02/20 03:25:53;;;;;;;3.00;1.20;;;;;;;-2.60;68.97;98468.08;105685;1259;75599;-26
2023/02/20 03:28:27;;;;;;;1.80;1.10;;;;;;;-2.65;68.65;98458.10;105670;1260;76344;-26
2023/02/20 03:30:59;;;;;;;2.40;1.00;;;;;;;-2.62;68.59;98458.47;105675;1259;73827;-26
2023/02/20 03:44:58;;;;;;;2.00;1.10;;;;;;;-1.85;67.43;98450.94;105673;1258;74172;-25
2023/02/20 03:47:28;;;;;;;2.30;0.90;;;;;;;-2.02;68.18;98458.42;105657;1258;61106;-25
2023/02/20 03:52:44;;;;;;;6.10;1.10;;;;;;;-2.33;69.97;98467.08;105642;1258;75338;-25
2023/02/20 03:55:13;;;;;;;2.50;1.40;;;;;;;-2.44;70.63;98470.21;105732;1259;76023;-25
2023/02/20 03:57:44;;;;;;;3.00;1.00;;;;;;;-2.55;70.96;98471.27;105716;1254;74132;-25
2023/02/20 04:00:20;;;;;;;3.70;1.20;;;;;;;-2.56;71.49;98465.71;105215;1262;61187;-25
2023/02/20 04:02:55;;;;;;;4.00;1.30;;;;;;;-2.04;70.66;98463.76;105459;1259;61157;-25
2023/02/20 04:05:29;;;;;;;1.50;1.00;;;;;;;-1.63;69.43;98471.17;105646;1255;75354;-25
2023/02/20 04:08:11;;;;;;;2.80;1.20;;;;;;;-1.70;69.79;98468.05;105676;1254;75963;-25
2023/02/20 04:10:45;;;;;;;3.90;1.40;;;;;;;-1.84;70.94;98463.50;105685;1254;72897;-25
2023/02/20 04:13:15;;;;;;;2.60;1.10;;;;;;;-2.01;72.24;98462.81;105681;1259;61064;-25
2023/02/20 04:15:46;;;;;;;3.40;1.60;;;;;;;-2.16;73.51;98461.66;105640;1255;61308;-25
2023/02/20 04:18:17;;;;;;;2.60;1.70;;;;;;;-2.29;75.05;98460.48;105704;1258;75479;-25
2023/02/20 04:20:46;;;;;;;1.80;1.30;;;;;;;-2.05;75.41;98463.48;105485;1259;76184;-25
2023/02/20 04:23:31;;;;;;;4.70;2.10;;;;;;;-1.55;74.37;98456.86;105616;1254;73902;-25
2023/02/20 04:26:17;;;;;;;2.50;1.50;;;;;;;-1.48;74.20;98456.45;105652;1255;61160;-25
2023/02/20 04:28:47;;;;;;;2.20;1.40;;;;;;;-1.61;74.67;98463.97;105368;1254;61084;-25
2023/02/20 04:31:17;;;;;;;5.40;1.90;;;;;;;-1.83;75.96;98461.76;105714;1258;74763;-26
2023/02/20 04:33:46;;;;;;;3.20;1.60;;;;;;;-1.94;77.02;98457.57;105737;1267;75966;-25
2023/02/20 04:36:19;;;;;;;3.60;1.70;;;;;;;-2.13;77.88;98455.10;105697;1253;74146;-25
2023/02/20 04:38:48;;;;;;;5.40;2.40;;;;;;;-1.79;77.26;98451.39;105724;1257;61183;-25
2023/02/20 04:41:18;;;;;;;2.60;1.70;;;;;;;-1.47;76.06;98457.57;105559;1257;61612;-25
2023/02/20 04:43:48;;;;;;;4.50;2.20;;;;;;;-1.58;75.71;98447.13;105662;1254;75167;-25
2023/02/20 04:46:17;;;;;;;5.00;1.80;;;;;;;-1.72;76.19;98449.08;105646;1254;75040;-25
2023/02/20 04:48:46;;;;;;;6.90;2.40;;;;;;;-1.97;76.66;98449.90;105728;1258;74305;-25
2023/02/20 04:51:15;;;;;;;4.70;1.70;;;;;;;-2.11;77.30;98446.19;105671;1255;61160;-25
2023/02/20 04:53:44;;;;;;;10.20;1.80;;;;;;;-1.98;76.89;98444.66;105574;1260;62116;-25
2023/02/20 04:56:15;;;;;;;5.20;2.30;;;;;;;-1.62;75.43;98452.39;105663;1259;75482;-25
2023/02/20 04:58:48;;;;;;;3.50;1.60;;;;;;;-1.50;74.78;98456.86;105699;1257;75364;-25
2023/02/20 05:01:20;;;;;;;10.20;2.60;;;;;;;-1.68;74.90;98448.54;105568;1254;74651;-25
2023/02/20 05:03:48;;;;;;;5.70;2.60;;;;;;;-1.89;75.71;98460.98;105689;1254;61017;-25
2023/02/20 05:06:17;;;;;;;4.50;2.10;;;;;;;-2.09;76.24;98470.25;105494;1255;61401;-25
2023/02/20 05:08:46;;;;;;;3.00;1.70;;;;;;;-2.25;76.85;98463.05;105720;1254;75555;-25
2023/02/20 05:11:17;;;;;;;6.40;2.60;;;;;;;-2.03;76.41;98477.36;105563;1255;74702;-25
2023/02/20 05:13:45;;;;;;;8.20;2.60;;;;;;;-1.61;74.68;98470.07;105472;1253;74064;-25
2023/02/20 05:16:14;;;;;;;4.70;2.30;;;;;;;-1.56;74.01;98472.77;105690;1257;61127;-25
2023/02/20 05:18:44;;;;;;;6.00;2.20;;;;;;;-1.67;73.79;98464.69;105611;1258;62042;-25
2023/02/20 05:24:01;;;;;;;4.20;2.40;;;;;;;-2.01;74.36;98467.20;105479;1261;76043;-25
2023/02/20 05:26:33;;;;;;;5.00;1.50;;;;;;;-2.12;74.94;98477.02;105721;1254;73923;-25
2023/02/20 05:29:01;;;;;;;6.50;1.60;;;;;;;-2.08;75.54;98477.38;105687;1258;62813;-25
2023/02/20 05:31:30;;;;;;;3.90;1.80;;;;;;;-1.59;73.38;98469.15;105701;1257;61843;-25
2023/02/20 05:34:00;;;;;;;4.30;2.40;;;;;;;-1.52;72.71;98473.09;105575;1255;74043;-25
2023/02/20 05:36:29;;;;;;;5.00;2.10;;;;;;;-1.65;73.36;98480.61;105543;1257;76183;-25
2023/02/20 05:38:58;;;;;;;4.10;2.00;;;;;;;-1.80;73.41;98478.81;105419;1254;73138;-25
2023/02/20 05:41:27;;;;;;;4.60;1.90;;;;;;;-1.83;73.80;98474.35;105549;1255;61112;-25
2023/02/20 05:43:56;;;;;;;3.40;1.80;;;;;;;-2.01;74.24;98477.95;105626;1259;61165;-25
2023/02/20 05:46:25;;;;;;;3.80;1.50;;;;;;;-2.02;74.92;98480.69;105744;1254;75306;-25
2023/02/20 05:48:53;;;;;;;10.30;2.50;;;;;;;-1.66;73.63;98466.67;105712;1264;74153;-25
2023/02/20 05:51:24;;;;;;;4.70;2.50;;;;;;;-1.43;72.79;98473.59;105554;1260;74245;-25
2023/02/20 05:53:52;;;;;;;4.40;1.60;;;;;;;-1.43;72.40;98474.77;105570;1255;61184;-25
2023/02/20 05:56:21;;;;;;;2.90;1.60;;;;;;;-1.53;72.63;98467.35;105690;1257;61984;-25
2023/02/20 05:58:49;;;;;;;5.60;1.80;;;;;;;-1.66;73.27;98475.05;105493;1254;75535;-26
2023/02/20 06:01:24;;;;;;;7.80;1.90;;;;;;;-1.73;73.56;98490.45;105647;1254;76447;-25
2023/02/20 06:03:52;;;;;;;3.40;1.50;;;;;;;-1.83;73.95;98482.02;105607;1254;74269;-25
2023/02/20 06:06:21;;;;;;;6.50;2.40;;;;;;;-1.65;74.11;98486.39;105647;1256;62941;-25
2023/02/20 06:08:49;;;;;;;3.70;1.60;;;;;;;-1.26;72.74;98481.75;105703;1257;61829;-25
2023/02/20 06:11:18;;;;;;;5.70;2.50;;;;;;;-1.00;71.77;98480.66;105680;1255;75429;-25
2023/02/20 06:13:47;;;;;;;5.00;1.80;;;;;;;-1.09;71.94;98483.09;105503;1260;74311;-25
2023/02/20 06:16:27;;;;;;;6.20;1.70;;;;;;;-1.17;72.02;98482.02;105775;1254;74211;-27
2023/02/20 06:18:56;;;;;;;3.60;1.90;;;;;;;-1.26;72.48;98473.04;105659;1253;61077;-25
2023/02/20 06:21:25;;;;;;;6.00;2.10;;;;;;;-1.30;72.57;98467.10;105652;1258;61155;-26
2023/02/20 06:23:53;;;;;;;3.50;1.20;;;;;;;-1.34;72.97;98488.73;105711;1258;74699;-26
2023/02/20 06:26:22;;;;;;;2.10;1.40;;;;;;;-1.31;73.36;98493.05;105642;1259;74668;-26
2023/02/20 06:28:53;;;;;;;3.20;1.30;;;;;;;-1.06;72.75;98483.95;105699;1258;74079;-25
2023/02/20 06:31:24;;;;;;;3.80;1.60;;;;;;;-0.73;71.10;98472.52;105624;1255;61051;-26
2023/02/20 06:33:52;;;;;;;4.00;1.70;;;;;;;-0.63;71.10;98485.34;105586;1260;61594;-27
2023/02/20 06:36:29;;;;;;;5.30;1.60;;;;;;;-0.57;70.63;98482.37;105710;1257;75436;-27
2023/02/20 06:38:58;;;;;;;3.70;1.80;;;;;;;-0.59;70.91;98484.48;105688;1254;76108;-24
2023/02/20 06:41:26;;;;;;;4.10;1.50;;;;;;;-0.75;71.41;98480.09;105705;1255;73893;-25
2023/02/20 06:43:55;;;;;;;2.40;1.40;;;;;;;-0.82;72.14;98481.59;105495;1254;60988;-25
2023/02/20 06:46:23;;;;;;;3.10;1.70;;;;;;;-0.88;72.47;98480.45;105436;1259;61534;-25
2023/02/20 06:48:56;;;;;;;2.30;1.30;;;;;;;-0.85;72.55;98481.17;105510;1255;75638;-24
2023/02/20 06:51:29;;;;;;;5.30;2.20;;;;;;;-0.83;73.00;98491.66;105584;1259;75882;-24
2023/02/20 06:53:58;;;;;;;3.00;1.60;;;;;;;-0.75;73.52;98492.89;105625;1254;73660;-25
2023/02/20 06:56:28;;;;;;;5.00;2.00;;;;;;;-0.23;71.98;98483.55;105676;1257;61096;-25
2023/02/20 06:58:59;;;;;;;3.70;1.50;;;;;;;0.04;70.28;98479.41;105691;1261;61877;-25
2023/02/20 07:01:29;;;;;;;4.70;1.70;;;;;;;-0.02;70.04;98467.59;105702;1254;74186;-25
2023/02/20 07:03:58;;;;;;;4.10;1.90;;;;;;;-0.13;70.62;98489.58;105681;1254;75299;-25
2023/02/20 07:06:29;;;;;;;6.10;2.00;;;;;;;-0.16;71.47;98482.91;105705;1264;73509;-24
2023/02/20 07:08:58;;;;;;;5.70;2.30;;;;;;;-0.13;71.89;98490.27;105660;1258;61806;-25
2023/02/20 07:11:27;;;;;;;5.30;1.90;;;;;;;-0.24;71.69;98487.86;105708;1257;61993;-25
2023/02/20 07:13:57;;;;;;;4.40;2.00;;;;;;;-0.23;72.48;98499.40;105723;1257;75645;-25
2023/02/20 07:16:25;;;;;;;5.00;2.10;;;;;;;-0.25;72.42;98492.52;105708;1258;75144;-25
2023/02/20 07:18:58;;;;;;;7.20;2.30;;;;;;;-0.19;72.39;98491.20;105725;1254;73149;-24
2023/02/20 07:21:26;;;;;;;4.70;2.40;;;;;;;-0.24;72.47;98490.91;105572;1254;61129;-25
2023/02/20 07:23:55;;;;;;;3.70;2.00;;;;;;;-0.23;72.30;98489.54;105590;1254;61056;-25
2023/02/20 07:26:26;;;;;;;5.80;1.60;;;;;;;-0.30;72.73;98486.98;105584;1255;75171;-25
2023/02/20 07:28:57;;;;;;;3.20;1.60;;;;;;;-0.39;72.62;98488.04;105502;1260;75784;-25
2023/02/20 07:31:26;;;;;;;4.00;1.70;;;;;;;-0.12;72.80;98484.55;105652;1253;74143;-25
2023/02/20 07:33:56;;;;;;;3.80;2.10;;;;;;;0.61;70.18;98474.80;105543;1260;61150;-26
2023/02/20 07:36:24;;;;;;;6.00;2.00;;;;;;;0.72;69.11;98471.00;105680;1254;61110;-27
2023/02/20 07:38:59;;;;;;;3.50;1.80;;;;;;;0.55;69.35;98463.63;105748;1257;74295;-25
2023/02/20 07:41:30;;;;;;;4.50;1.90;;;;;;;0.44;69.82;98469.65;105695;1254;75555;-26
2023/02/20 07:43:58;;;;;;;4.70;1.90;;;;;;;0.18;70.48;98458.78;105632;1257;74200;-26
2023/02/20 07:46:32;;;;;;;3.70;2.10;;;;;;;0.07;71.88;98465.80;105499;1257;61252;-27
2023/02/20 07:49:02;;;;;;;6.90;1.60;;;;;;;-0.12;72.31;98452.67;105624;1255;61978;-25
2023/02/20 07:51:31;;;;;;;3.90;1.80;;;;;;;-0.25;73.07;98465.39;105701;1254;75359;-27
2023/02/20 07:54:00;;;;;;;3.50;1.50;;;;;;;-0.17;73.81;98465.35;105600;1255;75756;-25
2023/02/20 07:56:28;;;;;;;2.70;1.90;;;;;;;0.25;72.87;98456.56;105717;1253;74345;-25
2023/02/20 07:58:57;;;;;;;4.10;1.60;;;;;;;0.54;71.13;98462.66;105698;1257;61040;-25
2023/02/20 08:01:28;;;;;;;4.40;1.90;;;;;;;0.43;71.00;98452.63;105700;1254;61820;-25
2023/02/20 08:03:57;;;;;;;4.60;2.50;;;;;;;0.40;71.81;98459.05;105669;1257;75346;-26
2023/02/20 08:06:27;;;;;;;3.10;1.90;;;;;;;0.33;72.43;98461.29;105572;1259;75693;-26
2023/02/20 08:08:56;;;;;;;3.20;1.90;;;;;;;0.12;72.45;98458.02;105452;1259;73968;-26
2023/02/20 08:11:25;;;;;;;6.70;2.90;;;;;;;0.03;73.94;98466.67;105674;1260;61141;-25
2023/02/20 08:13:54;;;;;;;4.00;1.80;;;;;;;-0.02;74.53;98464.16;105686;1258;61879;-25
2023/02/20 08:16:23;;;;;;;4.60;2.20;;;;;;;0.35;72.64;98454.36;105564;1258;73434;-25
2023/02/20 08:18:52;;;;;;;4.60;2.10;;;;;;;0.49;72.46;98467.70;105613;1254;75624;-25
2023/02/20 08:21:22;;;;;;;6.20;2.30;;;;;;;0.19;73.57;98455.98;105701;1255;74449;-25
2023/02/20 08:23:51;;;;;;;6.10;2.40;;;;;;;0.04;74.33;98453.65;105482;1254;61346;-27
2023/02/20 08:26:20;;;;;;;4.90;2.30;;;;;;;-0.20;75.57;98462.78;105546;1255;61969;-25
2023/02/20 08:28:49;;;;;;;3.20;1.70;;;;;;;-0.16;76.07;98464.44;105644;1257;75292;-25
2023/02/20 08:31:17;;;;;;;3.30;1.90;;;;;;;0.03;75.96;98470.23;105608;1253;75242;-25
2023/02/20 08:33:59;;;;;;;4.00;1.80;;;;;;;0.51;74.55;98483.98;105669;1254;73045;-24
2023/02/20 08:36:28;;;;;;;6.70;2.30;;;;;;;0.57;73.55;98464.91;105723;1257;61911;-26
2023/02/20 08:38:59;;;;;;;6.80;2.60;;;;;;;0.54;73.72;98472.73;105662;1259;61690;-26
2023/02/20 08:41:27;;;;;;;4.70;2.50;;;;;;;0.20;74.54;98459.52;105728;1253;75777;-26
2023/02/20 08:43:56;;;;;;;4.70;2.70;;;;;;;0.20;75.24;98471.97;105731;1257;76420;-26
2023/02/20 08:46:24;;;;;;;5.00;2.10;;;;;;;0.14;75.37;98470.23;105643;1257;74298;-26
2023/02/20 08:48:53;;;;;;;5.80;2.40;;;;;;;0.18;75.32;98472.06;105663;1257;62551;-25
2023/02/20 08:51:22;;;;;;;4.10;2.50;;;;;;;0.51;73.78;98459.19;105675;1258;62018;-26
2023/02/20 08:53:55;;;;;;;4.30;1.90;;;;;;;0.70;72.27;98463.39;105671;1254;75408;-26
2023/02/20 08:56:23;;;;;;;2.60;2.10;;;;;;;0.50;72.58;98472.05;105652;1257;75873;-26
2023/02/20 08:58:52;;;;;;;6.60;2.60;;;;;;;0.31;73.73;98466.34;105700;1254;74163;-26
2023/02/20 09:01:21;;;;;;;6.60;2.50;;;;;;;0.14;73.39;98454.20;105634;1254;61068;-26
2023/02/20 09:03:50;;;;;;;4.60;2.20;;;;;;;0.06;74.17;98462.42;105637;1257;61874;-26
2023/02/20 09:06:18;;;;;;;3.70;1.90;;;;;;;0.27;74.41;98470.30;105563;1253;75690;-25
2023/02/20 09:08:47;;;;;;;4.90;2.20;;;;;;;0.76;73.10;98468.73;105497;1254;75944;-25
2023/02/20 09:11:21;;;;;;;4.30;2.50;;;;;;;1.14;71.35;98475.36;105593;1257;73947;-25
2023/02/20 09:13:50;;;;;;;2.80;1.60;;;;;;;1.16;70.22;98455.77;105568;1258;62203;-25
2023/02/20 09:16:20;;;;;;;2.40;1.60;;;;;;;0.79;70.35;98452.17;105532;1257;61766;-25
2023/02/20 09:18:49;;;;;;;4.00;2.00;;;;;;;0.59;71.37;98457.12;105350;1254;75525;-26
2023/02/20 09:21:18;;;;;;;2.90;2.00;;;;;;;0.41;72.20;98460.41;105537;1256;76187;-25
2023/02/20 09:23:47;;;;;;;5.80;3.10;;;;;;;0.32;72.48;98444.63;105553;1254;74184;-25
2023/02/20 09:26:16;;;;;;;4.60;2.60;;;;;;;0.04;73.54;98451.42;105543;1253;61149;-25
2023/02/20 09:28:46;;;;;;;4.90;3.00;;;;;;;0.10;73.95;98455.38;105435;1258;61708;-25
2023/02/20 09:31:15;;;;;;;5.20;2.50;;;;;;;0.43;73.17;98456.36;105743;1253;75101;-26
2023/02/20 09:33:45;;;;;;;2.90;2.00;;;;;;;0.52;72.57;98456.28;105656;1254;75856;-25
2023/02/20 09:36:18;;;;;;;;;;;;;;;0.66;72.34;98451.30;105670;1253;73443;-26
2023/02/20 09:38:46;;;;;;;4.30;2.90;;;;;;;0.52;72.35;98437.67;105692;1254;61101;-26
2023/02/20 09:41:41;;;;;;;4.70;2.50;;;;;;;0.33;73.61;98441.83;105557;1258;61843;-26
2023/02/20 09:44:15;;;;;;;6.00;2.80;;;;;;;0.27;74.73;98457.98;105470;1254;75222;-24
2023/02/20 09:46:44;;;;;;;5.90;2.60;;;;;;;0.22;75.34;98449.17;105602;1261;76319;-27
2023/02/20 09:49:16;;;;;;;5.20;3.60;;;;;;;0.39;74.96;98442.92;104213;1258;1921995;-26
2023/02/20 09:51:48;;;;;;;6.20;3.30;;;;;;;0.40;75.35;98404.23;105669;1254;61954;-25
2023/02/20 09:54:25;;;;;;;7.20;4.10;;;;;;;0.40;75.93;98415.52;105518;1254;61842;-26
2023/02/20 09:56:59;;;;;;;7.20;3.50;;;;;;;0.47;75.76;98424.42;105527;1253;75616;-25
2023/02/20 09:59:32;;;;;;;8.70;4.90;;;;;;;0.16;76.94;98405.59;105664;1253;76234;-25
2023/02/20 10:02:16;;;;;;;8.10;5.00;;;;;;;-0.04;77.90;98409.09;105609;1253;74277;-25
2023/02/20 10:04:52;;;;;;;6.80;3.00;;;;;;;0.17;78.44;98409.13;105541;1254;62497;-26
2023/02/20 10:07:35;;;;;;;4.60;3.40;;;;;;;0.87;76.04;98410.94;105615;1258;61853;-26
2023/02/20 10:10:20;;;;;;;3.10;2.10;;;;;;;0.97;75.21;98407.54;105644;1253;74366;-26
2023/02/20 10:13:26;;;;;;;4.60;2.60;;;;;;;0.89;75.68;98395.65;105660;1253;75983;-26
2023/02/20 10:16:01;;;;;;;3.80;2.80;;;;;;;0.69;77.17;98387.58;105676;1254;73625;-26
2023/02/20 10:18:56;;;;;;;6.10;2.40;;;;;;;0.51;77.64;98375.03;105656;1254;61160;-26
2023/02/20 10:21:33;;;;;;;5.30;1.90;;;;;;;0.66;78.00;98360.73;105518;1258;61882;-26
2023/02/20 10:24:45;;;;;;;3.10;2.30;;;;;;;1.08;76.69;98372.10;105632;1254;75162;-26
2023/02/20 10:27:46;;;;;;;3.10;2.20;;;;;;;1.03;76.28;98369.11;105666;1257;76314;-26
2023/02/20 10:30:19;;;;;;;4.90;3.30;;;;;;;0.78;77.13;98365.41;105662;1254;74153;-26
2023/02/20 10:32:49;;;;;;;;;;;;;;;0.47;77.88;98370.92;105544;1258;61129;-26
2023/02/20 10:35:24;;;;;;;3.40;2.20;;;;;;;0.34;78.82;98370.77;105595;1257;61767;-26
2023/02/20 10:37:54;;;;;;;4.30;2.60;;;;;;;0.55;78.50;98359.13;105670;1253;75348;-26
2023/02/20 10:40:46;;;;;;;6.60;3.10;;;;;;;0.95;76.43;98347.10;105603;1260;75403;-26
2023/02/20 10:43:21;;;;;;;4.20;2.80;;;;;;;0.87;75.98;98338.84;105573;1259;73165;-26
2023/02/20 10:45:58;;;;;;;4.20;2.90;;;;;;;0.85;76.27;98339.80;105598;1253;61002;-26
2023/02/20 10:48:29;;;;;;;5.40;2.40;;;;;;;0.71;76.56;98334.52;105688;1254;61155;-26
2023/02/20 10:51:11;;;;;;;7.40;3.00;;;;;;;0.61;76.61;98329.91;105707;1254;74435;-26
2023/02/20 10:53:46;;;;;;;6.60;3.40;;;;;;;0.76;76.09;98321.98;105670;1253;75592;-26
2023/02/20 10:56:45;;;;;;;4.00;2.70;;;;;;;1.22;74.81;98313.02;105671;1254;74309;-26
2023/02/20 10:59:22;;;;;;;8.10;3.20;;;;;;;1.35;73.49;98317.97;105656;1260;61165;-26
2023/02/20 11:01:54;;;;;;;5.40;3.10;;;;;;;1.38;73.49;98329.80;105698;1253;61288;-26
2023/02/20 11:04:29;;;;;;;4.50;2.50;;;;;;;1.35;73.51;98314.35;105552;1253;74736;-25
2023/02/20 11:07:00;;;;;;;7.30;2.80;;;;;;;1.32;72.68;98297.23;105671;1253;76039;-25
2023/02/20 11:09:30;;;;;;;8.80;3.10;;;;;;;1.23;72.67;98301.86;105474;1253;72498;-26
2023/02/20 11:12:01;;;;;;;2.80;1.80;;;;;;;1.34;72.62;98299.23;105669;1253;62967;-25
2023/02/20 11:14:32;;;;;;;2.00;1.50;;;;;;;1.67;70.41;98297.02;105719;1253;61092;-25
2023/02/20 11:17:17;;;;;;;4.10;2.10;;;;;;;1.77;69.95;98295.44;105685;1253;75398;-26
2023/02/20 11:19:47;;;;;;;6.50;2.10;;;;;;;1.77;69.54;98287.61;105714;1258;75903;-26
2023/02/20 11:22:17;;;;;;;6.90;3.00;;;;;;;1.63;69.92;98269.71;105452;1258;74396;-26
2023/02/20 11:24:45;;;;;;;6.00;2.30;;;;;;;1.48;70.14;98280.32;105613;1259;61141;-25
2023/02/20 11:27:21;;;;;;;3.40;2.00;;;;;;;1.48;70.75;98284.60;105577;1255;61880;-25
2023/02/20 11:30:04;;;;;;;5.70;2.70;;;;;;;1.49;70.65;98271.20;105476;1253;75661;-25
2023/02/20 11:32:38;;;;;;;4.30;2.20;;;;;;;1.42;70.42;98269.69;105659;1253;75613;-26
2023/02/20 11:35:18;;;;;;;5.00;2.00;;;;;;;1.53;69.81;98267.02;105681;1253;73865;-26
2023/02/20 11:37:51;;;;;;;4.40;2.20;;;;;;;2.01;68.65;98276.96;105593;1258;61181;-26
2023/02/20 11:40:32;;;;;;;3.40;2.20;;;;;;;2.14;67.65;98271.55;105690;1259;61233;-26
2023/02/20 11:43:13;;;;;;;5.90;2.00;;;;;;;2.07;67.94;98276.26;105701;1253;75099;-26
2023/02/20 11:45:41;;;;;;;3.90;1.90;;;;;;;1.92;68.23;98261.73;105683;1253;75760;-26
2023/02/20 11:48:13;;;;;;;6.20;2.60;;;;;;;1.80;68.56;98245.45;105531;1253;74472;-26
2023/02/20 11:50:47;;;;;;;5.40;2.00;;;;;;;1.68;68.53;98245.12;105486;1253;61141;-26
2023/02/20 11:53:20;;;;;;;8.60;2.30;;;;;;;1.63;69.20;98271.77;105160;1261;61885;-25
2023/02/20 11:56:10;;;;;;;3.50;2.30;;;;;;;1.68;69.46;98266.36;105405;1253;75437;-25
2023/02/20 11:58:39;;;;;;;2.80;1.60;;;;;;;1.63;69.53;98250.39;105351;1260;74270;-25
2023/02/20 12:01:33;;;;;;;3.80;1.80;;;;;;;1.91;68.64;98241.07;105428;1253;74419;-25
2023/02/20 12:04:01;;;;;;;4.50;1.60;;;;;;;2.16;67.74;98257.59;105676;1254;61870;-25
2023/02/20 12:06:33;;;;;;;2.40;1.60;;;;;;;2.15;67.91;98253.33;105676;1255;61922;-25
2023/02/20 12:09:02;;;;;;;3.70;1.80;;;;;;;2.04;67.64;98240.29;105660;1253;75358;-25
2023/02/20 12:11:30;;;;;;;4.30;2.10;;;;;;;1.92;68.15;98246.48;105714;1258;75143;-25
2023/02/20 12:14:00;;;;;;;2.50;1.80;;;;;;;1.81;68.43;98229.52;105716;1253;72359;-25
2023/02/20 12:16:50;;;;;;;4.70;1.70;;;;;;;1.78;68.02;98222.98;105619;1253;61167;-25